Tuckahoe, New York
Current Conditions -  °F | °C
As of 3:56 PM on Tuesday 25 Nov 2014 (Local Time) from KHPN Reporting Station
Broken Clouds Broken Clouds  
Wind Chill: 51°   Ceiling: 12000
Heat Index: 51°   Visibility: 10mi
Dew Point: 26°   Wind: 3mph
Humidity: 38%   Direction: 240°WSW
Pressure: 29.99"   Gusts: NA
Location:  40.95°N, 73.83°W
Report Text: KHPN 252056Z 24003KT 10SM BKN120 11/M03 A2999 RMK AO2 SLP155 T01061033 53008
Loading
Personal Weather Stations






























Interactive Weather Map New forecast layout! Learn more

10-Day Weather Forecast

Advertisements
Track Severe Weather on mobile